createdAt,value
2019-06-26T00:01:22.431Z,13.30
2019-06-26T00:03:49.990Z,12.90
2019-06-26T00:06:17.567Z,13.00
2019-06-26T00:08:45.214Z,13.10
2019-06-26T00:11:12.757Z,13.30
2019-06-26T00:13:40.409Z,13.27
2019-06-26T00:16:09.070Z,13.43
2019-06-26T00:18:36.637Z,14.17
2019-06-26T00:21:04.311Z,12.10
2019-06-26T00:23:31.858Z,13.35
2019-06-26T00:25:59.671Z,14.03
2019-06-26T00:28:27.145Z,13.53
2019-06-26T00:30:55.278Z,13.30
2019-06-26T00:33:22.766Z,13.10
2019-06-26T00:35:50.351Z,14.30
2019-06-26T00:38:19.189Z,13.63
2019-06-26T00:40:46.719Z,14.50
2019-06-26T00:43:14.385Z,13.37
2019-06-26T00:45:42.101Z,14.13
2019-06-26T00:48:10.206Z,13.90
2019-06-26T00:50:37.845Z,13.50
2019-06-26T00:53:05.439Z,14.23
2019-06-26T00:55:32.930Z,14.33
2019-06-26T00:58:00.514Z,15.23
2019-06-26T01:00:34.178Z,14.10
2019-06-26T01:03:01.693Z,15.40
2019-06-26T01:05:30.542Z,15.00
2019-06-26T01:07:58.132Z,14.30
2019-06-26T01:10:25.725Z,14.70
2019-06-26T01:12:53.265Z,15.17
2019-06-26T01:15:21.753Z,13.70
2019-06-26T01:17:49.592Z,14.17
2019-06-26T01:20:17.304Z,13.43
2019-06-26T01:22:44.897Z,14.53
2019-06-26T01:25:12.702Z,14.40
2019-06-26T01:27:41.599Z,13.87
2019-06-26T01:30:10.790Z,14.33
2019-06-26T01:32:38.492Z,14.30
2019-06-26T01:35:06.559Z,14.80
2019-06-26T01:37:40.118Z,15.17
2019-06-26T01:40:08.563Z,15.40
2019-06-26T01:42:36.130Z,14.40
2019-06-26T01:45:06.236Z,15.30
2019-06-26T01:47:33.943Z,15.03
2019-06-26T01:50:01.503Z,15.93
2019-06-26T01:52:30.695Z,14.43
2019-06-26T01:54:58.355Z,14.23
2019-06-26T01:57:26.021Z,14.80
2019-06-26T01:59:53.536Z,15.20
2019-06-26T02:02:21.294Z,15.63
2019-06-26T02:04:48.862Z,14.50
2019-06-26T02:07:16.366Z,14.50
2019-06-26T02:09:43.955Z,15.20
2019-06-26T02:12:11.571Z,15.20
2019-06-26T02:14:39.171Z,15.20
2019-06-26T02:17:06.679Z,16.27
2019-06-26T02:19:34.218Z,16.37
2019-06-26T02:22:04.078Z,17.93
2019-06-26T02:24:31.610Z,18.83
2019-06-26T02:26:59.170Z,18.17
2019-06-26T02:29:26.790Z,17.30
2019-06-26T02:31:54.273Z,18.33
2019-06-26T02:34:21.790Z,17.92
2019-06-26T02:36:49.410Z,19.27
2019-06-26T02:39:17.998Z,19.37
2019-06-26T02:41:45.409Z,18.90
2019-06-26T02:44:12.931Z,19.20
2019-06-26T02:46:40.389Z,18.40
2019-06-26T02:49:09.109Z,20.77
2019-06-26T02:51:36.673Z,20.47
2019-06-26T02:54:04.441Z,19.87
2019-06-26T02:56:31.913Z,18.67
2019-06-26T02:58:59.496Z,18.60
2019-06-26T03:01:27.320Z,20.30
2019-06-26T03:03:54.998Z,19.37
2019-06-26T03:06:22.603Z,17.17
2019-06-26T03:08:50.149Z,17.93
2019-06-26T03:11:17.791Z,18.57
2019-06-26T03:13:45.262Z,18.80
2019-06-26T03:16:12.844Z,17.67
2019-06-26T03:18:40.400Z,18.10
2019-06-26T03:21:08.046Z,17.20
2019-06-26T03:23:35.616Z,16.03
2019-06-26T03:26:03.200Z,18.13
2019-06-26T03:28:30.812Z,17.50
2019-06-26T03:30:58.439Z,15.97
2019-06-26T03:33:27.324Z,17.00
2019-06-26T03:35:54.807Z,19.03
2019-06-26T03:38:22.338Z,18.50
2019-06-26T03:40:50.774Z,18.73
2019-06-26T03:43:18.338Z,17.00
2019-06-26T03:45:46.080Z,19.73
2019-06-26T03:48:13.693Z,19.40
2019-06-26T03:50:41.289Z,19.87
2019-06-26T03:53:09.121Z,16.10
2019-06-26T03:55:36.614Z,17.00
2019-06-26T03:58:04.207Z,18.43
2019-06-26T04:00:39.800Z,17.73
2019-06-26T04:03:08.674Z,20.80
2019-06-26T04:05:36.292Z,20.60
2019-06-26T04:08:04.608Z,19.50
2019-06-26T04:10:32.051Z,19.93
2019-06-26T04:12:59.570Z,20.33
2019-06-26T04:15:40.958Z,18.73
2019-06-26T04:17:56.507Z,20.70
2019-06-26T04:20:23.973Z,22.13
2019-06-26T04:22:51.523Z,18.87
2019-06-26T04:25:19.579Z,22.65
2019-06-26T04:27:47.743Z,18.77
2019-06-26T04:30:15.312Z,22.83
2019-06-26T04:32:43.012Z,19.50
2019-06-26T04:35:10.536Z,22.70
2019-06-26T04:37:38.446Z,22.83
2019-06-26T04:40:06.136Z,20.13
2019-06-26T04:42:37.196Z,20.60
2019-06-26T04:45:04.749Z,19.50
2019-06-26T04:47:32.435Z,20.33
2019-06-26T04:49:59.901Z,20.40
2019-06-26T04:52:47.041Z,23.20
2019-06-26T04:55:15.057Z,21.37
2019-06-26T04:57:42.809Z,22.90
2019-06-26T05:00:12.692Z,22.20
2019-06-26T05:02:40.293Z,23.00
2019-06-26T05:05:10.092Z,19.83
2019-06-26T05:07:37.688Z,23.47
2019-06-26T05:10:06.653Z,25.70
2019-06-26T05:12:34.513Z,22.90
2019-06-26T05:15:02.297Z,24.60
2019-06-26T05:17:30.032Z,23.40
2019-06-26T05:19:57.645Z,22.60
2019-06-26T05:22:25.396Z,22.30
2019-06-26T05:24:53.079Z,21.90
2019-06-26T05:27:21.169Z,22.70
2019-06-26T05:29:48.694Z,19.63
2019-06-26T05:32:16.153Z,19.87
2019-06-26T05:34:43.836Z,22.07
2019-06-26T05:37:11.454Z,20.77
2019-06-26T05:39:39.037Z,20.20
2019-06-26T05:42:06.953Z,21.00
2019-06-26T05:44:34.458Z,22.37
2019-06-26T05:47:01.947Z,20.63
2019-06-26T05:49:29.491Z,19.30
2019-06-26T05:51:57.056Z,19.30
2019-06-26T05:54:25.464Z,20.43
2019-06-26T05:56:53.096Z,18.80
2019-06-26T05:59:20.687Z,19.73
2019-06-26T06:01:48.127Z,18.33
2019-06-26T06:04:15.761Z,20.50
2019-06-26T06:06:43.347Z,17.70
2019-06-26T06:09:11.019Z,16.97
2019-06-26T06:11:38.617Z,18.93
2019-06-26T06:14:06.074Z,19.40
2019-06-26T06:16:46.328Z,19.37
2019-06-26T06:19:03.040Z,19.80
2019-06-26T06:21:30.659Z,19.33
2019-06-26T06:23:59.350Z,18.63
2019-06-26T06:26:27.610Z,21.30
2019-06-26T06:28:55.239Z,22.00
2019-06-26T06:31:22.770Z,21.53
2019-06-26T06:33:52.428Z,22.70
2019-06-26T06:36:20.144Z,22.77
2019-06-26T06:38:47.731Z,22.87
2019-06-26T06:41:15.220Z,23.30
2019-06-26T06:43:43.871Z,23.80
2019-06-26T06:46:11.453Z,24.07
2019-06-26T06:48:38.998Z,24.50
2019-06-26T06:51:09.083Z,26.30
2019-06-26T06:53:36.803Z,24.57
2019-06-26T06:56:04.571Z,26.23
2019-06-26T06:58:32.193Z,25.60
2019-06-26T07:00:59.908Z,26.90
2019-06-26T07:03:27.551Z,25.73
2019-06-26T07:05:55.183Z,25.03
2019-06-26T07:08:22.691Z,24.73
2019-06-26T07:10:50.332Z,24.93
2019-06-26T07:13:17.946Z,23.90
2019-06-26T07:15:45.629Z,24.87
2019-06-26T07:18:13.178Z,25.70
2019-06-26T07:20:44.337Z,23.77
2019-06-26T07:23:10.304Z,25.37
2019-06-26T07:25:37.895Z,23.50
2019-06-26T07:28:05.544Z,24.50
2019-06-26T07:30:33.119Z,23.13
2019-06-26T07:33:00.690Z,21.70
2019-06-26T07:35:28.046Z,21.70
2019-06-26T07:37:55.603Z,21.77
2019-06-26T07:40:23.207Z,24.00
2019-06-26T07:42:50.901Z,19.47
2019-06-26T07:45:18.439Z,19.13
2019-06-26T07:47:46.472Z,18.00
2019-06-26T07:50:14.064Z,17.27
2019-06-26T07:52:43.784Z,17.70
2019-06-26T07:55:12.389Z,15.83
2019-06-26T07:57:40.032Z,14.93
2019-06-26T08:00:07.745Z,15.57
2019-06-26T08:02:35.282Z,15.57
2019-06-26T08:05:03.136Z,15.57
2019-06-26T08:07:30.927Z,13.40
2019-06-26T08:09:58.475Z,12.47
2019-06-26T08:12:26.044Z,11.27
2019-06-26T08:14:53.681Z,10.63
2019-06-26T08:17:22.330Z,11.50
2019-06-26T08:19:49.788Z,11.23
2019-06-26T08:22:17.168Z,11.40
2019-06-26T08:24:44.952Z,10.93
2019-06-26T08:27:13.290Z,12.07
2019-06-26T08:29:40.974Z,10.30
2019-06-26T08:32:08.538Z,11.20
2019-06-26T08:34:35.986Z,9.53
2019-06-26T08:37:03.578Z,7.70
2019-06-26T08:39:31.128Z,8.60
2019-06-26T08:41:58.757Z,9.80
2019-06-26T08:44:26.271Z,10.40
2019-06-26T08:46:53.710Z,9.67
2019-06-26T08:49:25.305Z,10.40
2019-06-26T08:51:50.586Z,8.20
2019-06-26T08:54:18.182Z,8.40
2019-06-26T08:56:47.147Z,7.67
2019-06-26T08:59:14.715Z,10.00
2019-06-26T09:01:42.199Z,10.10
2019-06-26T09:04:09.660Z,8.90
2019-06-26T09:06:37.199Z,10.17
2019-06-26T09:09:06.621Z,9.07
2019-06-26T09:11:34.918Z,9.70
2019-06-26T09:14:02.616Z,8.20
2019-06-26T09:16:30.331Z,10.03
2019-06-26T09:18:57.764Z,10.10
2019-06-26T09:21:25.326Z,7.90
2019-06-26T09:23:52.932Z,8.30
2019-06-26T09:26:20.297Z,7.13
2019-06-26T09:28:47.966Z,8.13
2019-06-26T09:31:15.452Z,8.60
2019-06-26T09:33:43.184Z,7.60
2019-06-26T09:36:10.690Z,7.33
2019-06-26T09:38:38.273Z,7.57
2019-06-26T09:41:05.688Z,8.00
2019-06-26T09:43:33.125Z,7.93
2019-06-26T09:46:00.733Z,7.07
2019-06-26T09:48:29.447Z,8.43
2019-06-26T09:50:57.041Z,7.20
2019-06-26T09:53:24.613Z,7.00
2019-06-26T09:55:52.148Z,7.77
2019-06-26T09:58:19.715Z,7.90
2019-06-26T10:00:48.371Z,7.10
2019-06-26T10:03:15.798Z,7.42
2019-06-26T10:05:43.327Z,6.93
2019-06-26T10:08:10.747Z,6.92
2019-06-26T10:10:38.197Z,6.93
2019-06-26T10:13:05.909Z,6.70
2019-06-26T10:15:33.492Z,7.10
2019-06-26T10:18:01.058Z,6.57
2019-06-26T10:20:28.679Z,6.10
2019-06-26T10:22:56.402Z,6.47
2019-06-26T10:25:23.950Z,6.17
2019-06-26T10:27:51.560Z,6.93
2019-06-26T10:30:19.321Z,8.70
2019-06-26T10:32:47.354Z,6.50
2019-06-26T10:35:15.401Z,7.00
2019-06-26T10:37:42.915Z,6.43
2019-06-26T10:40:10.627Z,7.17
2019-06-26T10:42:38.104Z,7.50
2019-06-26T10:45:06.234Z,6.40
2019-06-26T10:47:33.712Z,7.90
2019-06-26T10:50:01.300Z,7.83
2019-06-26T10:52:29.100Z,7.97
2019-06-26T10:54:56.580Z,7.63
2019-06-26T10:57:24.181Z,7.20
2019-06-26T10:59:55.536Z,7.27
2019-06-26T11:02:21.268Z,6.90
2019-06-26T11:04:48.981Z,6.10
2019-06-26T11:07:16.554Z,6.83
2019-06-26T11:09:44.007Z,6.43
2019-06-26T11:12:11.565Z,6.60
2019-06-26T11:14:39.222Z,7.00
2019-06-26T11:17:06.798Z,7.40
2019-06-26T11:19:43.763Z,6.70
2019-06-26T11:22:04.167Z,7.20
2019-06-26T11:24:31.763Z,7.50
2019-06-26T11:26:59.224Z,7.70
2019-06-26T11:29:26.851Z,7.17
2019-06-26T11:31:55.180Z,7.47
2019-06-26T11:34:22.761Z,7.87
2019-06-26T11:37:03.163Z,7.70
2019-06-26T11:39:19.514Z,8.37
2019-06-26T11:41:47.052Z,8.20
2019-06-26T11:44:14.667Z,7.53
2019-06-26T11:46:42.259Z,7.90
2019-06-26T11:49:10.418Z,10.13
2019-06-26T11:51:37.963Z,9.50
2019-06-26T11:54:05.551Z,10.30
2019-06-26T11:56:33.136Z,11.33
2019-06-26T11:59:00.831Z,11.90
2019-06-26T12:01:28.465Z,11.40
2019-06-26T12:03:56.085Z,12.95
2019-06-26T12:06:23.724Z,15.00
2019-06-26T12:08:51.305Z,13.00
2019-06-26T12:11:18.731Z,11.73
2019-06-26T12:13:46.311Z,12.50
2019-06-26T12:16:13.766Z,12.20
2019-06-26T12:18:41.798Z,13.13
2019-06-26T12:21:10.022Z,11.80
2019-06-26T12:23:37.609Z,11.33
2019-06-26T12:26:05.237Z,10.90
2019-06-26T12:28:32.833Z,11.43
2019-06-26T12:31:00.339Z,11.27
2019-06-26T12:33:27.801Z,11.70
2019-06-26T12:35:55.446Z,12.30
2019-06-26T12:38:23.165Z,11.70
2019-06-26T12:40:50.883Z,11.30
2019-06-26T12:43:18.395Z,12.17
2019-06-26T12:45:47.509Z,10.33
2019-06-26T12:48:16.280Z,11.33
2019-06-26T12:50:44.386Z,10.70
2019-06-26T12:53:12.013Z,10.63
2019-06-26T12:55:39.599Z,11.80
2019-06-26T12:58:14.752Z,10.40
2019-06-26T13:00:36.629Z,9.47
2019-06-26T13:03:04.914Z,11.70
2019-06-26T13:05:32.302Z,11.70
2019-06-26T13:07:59.902Z,11.20
2019-06-26T13:10:27.504Z,10.13
2019-06-26T13:12:55.091Z,11.50
2019-06-26T13:15:22.682Z,10.37
2019-06-26T13:17:50.243Z,10.67
2019-06-26T13:20:18.238Z,11.15
2019-06-26T13:22:45.952Z,11.00
2019-06-26T13:25:16.085Z,12.60
2019-06-26T13:27:43.817Z,11.83
2019-06-26T13:30:11.823Z,10.37
2019-06-26T13:32:39.344Z,11.03
2019-06-26T13:35:08.008Z,10.93
2019-06-26T13:37:35.423Z,11.08
2019-06-26T13:40:03.261Z,11.67
2019-06-26T13:42:31.092Z,11.63
2019-06-26T13:44:59.005Z,11.13
2019-06-26T13:47:26.728Z,10.17
2019-06-26T13:49:54.308Z,10.30
2019-06-26T13:52:21.883Z,11.27
2019-06-26T13:54:49.319Z,11.10
2019-06-26T13:57:16.946Z,10.17
2019-06-26T13:59:44.678Z,10.10
2019-06-26T14:02:12.161Z,11.10
2019-06-26T14:04:39.821Z,11.97
2019-06-26T14:07:08.680Z,11.20
2019-06-26T14:09:36.903Z,10.10
2019-06-26T14:12:04.900Z,9.93
2019-06-26T14:14:52.531Z,11.10
2019-06-26T14:17:02.056Z,10.60
2019-06-26T14:19:29.578Z,10.87
2019-06-26T14:21:57.111Z,10.70
2019-06-26T14:24:25.126Z,12.10
2019-06-26T14:26:52.522Z,11.43
2019-06-26T14:29:21.179Z,11.60
2019-06-26T14:31:49.112Z,11.03
2019-06-26T14:34:16.644Z,10.87
2019-06-26T14:36:44.127Z,10.93
2019-06-26T14:39:11.916Z,9.70
2019-06-26T14:41:39.492Z,11.27
2019-06-26T14:44:07.040Z,10.00
2019-06-26T14:46:34.468Z,10.70
2019-06-26T14:49:01.971Z,10.53
2019-06-26T14:51:42.281Z,10.50
2019-06-26T14:53:58.995Z,10.20
2019-06-26T14:56:27.173Z,10.70
2019-06-26T14:58:54.719Z,10.00
2019-06-26T15:01:22.322Z,9.27
2019-06-26T15:03:49.901Z,8.33
2019-06-26T15:06:17.482Z,9.20
2019-06-26T15:08:45.026Z,10.00
2019-06-26T15:11:15.502Z,9.00
2019-06-26T15:13:41.967Z,9.20
2019-06-26T15:16:09.429Z,9.20
2019-06-26T15:18:36.888Z,9.30
2019-06-26T15:21:04.403Z,9.35
2019-06-26T15:23:31.904Z,9.70
2019-06-26T15:25:59.453Z,10.93
2019-06-26T15:28:26.863Z,9.10
2019-06-26T15:30:54.390Z,9.37
2019-06-26T15:33:22.078Z,9.23
2019-06-26T15:35:49.581Z,10.60
2019-06-26T15:38:17.088Z,10.20
2019-06-26T15:40:44.597Z,11.20
2019-06-26T15:43:12.817Z,10.93
2019-06-26T15:45:42.488Z,11.05
2019-06-26T15:48:09.988Z,11.33
2019-06-26T15:50:37.563Z,10.47
2019-06-26T15:53:05.214Z,11.60
2019-06-26T15:55:32.808Z,10.63
2019-06-26T15:58:00.421Z,11.67
2019-06-26T16:00:28.050Z,10.53
2019-06-26T16:02:55.519Z,10.17
2019-06-26T16:05:23.409Z,10.00
2019-06-26T16:07:50.979Z,10.17
2019-06-26T16:10:18.511Z,12.77
2019-06-26T16:12:46.059Z,10.63
2019-06-26T16:15:14.316Z,9.50
2019-06-26T16:18:01.551Z,9.20
2019-06-26T16:20:29.022Z,8.40
2019-06-26T16:22:56.680Z,8.30
2019-06-26T16:25:24.431Z,7.90
2019-06-26T16:28:04.641Z,7.30
2019-06-26T16:30:22.394Z,8.17
2019-06-26T16:32:49.976Z,6.73
2019-06-26T16:35:18.698Z,6.20
2019-06-26T16:37:46.407Z,6.10
2019-06-26T16:40:14.134Z,6.60
2019-06-26T16:42:41.714Z,6.33
2019-06-26T16:45:09.270Z,5.70
2019-06-26T16:47:36.806Z,5.60
2019-06-26T16:50:04.391Z,5.13
2019-06-26T16:52:47.467Z,4.83
2019-06-26T16:55:01.557Z,3.90
2019-06-26T16:57:29.141Z,4.20
2019-06-26T17:00:08.935Z,5.17
2019-06-26T17:02:26.238Z,3.57
2019-06-26T17:04:53.858Z,3.50
2019-06-26T17:07:21.678Z,3.27
2019-06-26T17:09:49.102Z,3.97
2019-06-26T17:12:45.559Z,3.40
2019-06-26T17:15:14.042Z,2.90
2019-06-26T17:17:46.908Z,4.97
2019-06-26T17:20:22.680Z,4.20
2019-06-26T17:23:04.974Z,2.67
2019-06-26T17:25:32.701Z,2.80
2019-06-26T17:28:05.328Z,2.90
2019-06-26T17:30:54.083Z,2.77
2019-06-26T17:33:25.496Z,2.33
2019-06-26T17:35:55.939Z,2.73
2019-06-26T17:38:27.269Z,2.77
2019-06-26T17:40:55.498Z,2.37
2019-06-26T17:43:27.561Z,2.93
2019-06-26T17:46:15.465Z,2.10
2019-06-26T17:48:52.839Z,2.70
2019-06-26T17:51:43.490Z,2.50
2019-06-26T17:54:16.778Z,2.50
2019-06-26T18:02:22.996Z,3.00
2019-06-26T18:04:50.563Z,2.93
2019-06-26T18:07:18.057Z,2.90
2019-06-26T18:09:45.779Z,3.10
2019-06-26T18:12:16.277Z,3.00
2019-06-26T18:14:43.948Z,2.97
2019-06-26T18:17:22.040Z,3.97
2019-06-26T18:19:43.626Z,3.00
2019-06-26T18:22:11.158Z,2.60
2019-06-26T18:24:38.703Z,3.50
2019-06-26T18:27:08.653Z,3.27
2019-06-26T18:29:36.383Z,3.90
2019-06-26T18:32:04.294Z,3.37
2019-06-26T18:34:31.946Z,4.20
2019-06-26T18:36:59.485Z,4.50
2019-06-26T18:39:27.124Z,4.00
2019-06-26T18:41:54.709Z,3.97
2019-06-26T18:44:22.267Z,4.10
2019-06-26T18:46:49.944Z,4.30
2019-06-26T18:49:17.630Z,4.33
2019-06-26T18:51:45.259Z,4.80
2019-06-26T18:54:13.032Z,3.80
2019-06-26T18:56:40.875Z,4.00
2019-06-26T18:59:09.508Z,4.40
2019-06-26T19:01:37.560Z,3.97
2019-06-26T19:04:06.093Z,4.50
2019-06-26T19:06:34.442Z,3.77
2019-06-26T19:09:02.216Z,4.30
2019-06-26T19:11:31.758Z,4.20
2019-06-26T19:13:59.311Z,4.55
2019-06-26T19:16:26.764Z,3.77
2019-06-26T19:18:54.438Z,4.10
2019-06-26T19:21:22.134Z,4.10
2019-06-26T19:23:49.773Z,4.30
2019-06-26T19:26:17.301Z,4.93
2019-06-26T19:28:44.952Z,4.87
2019-06-26T19:31:13.577Z,6.40
2019-06-26T19:33:41.245Z,4.97
2019-06-26T19:36:09.050Z,5.13
2019-06-26T19:38:39.824Z,5.67
2019-06-26T19:41:08.610Z,5.10
2019-06-26T19:43:37.348Z,4.40
2019-06-26T19:46:04.997Z,6.00
2019-06-26T19:48:32.723Z,6.70
2019-06-26T19:51:00.784Z,5.03
2019-06-26T19:53:28.953Z,4.60
2019-06-26T19:55:56.612Z,4.43
2019-06-26T19:58:24.331Z,6.40
2019-06-26T20:00:52.140Z,5.40
2019-06-26T20:03:19.728Z,5.75
2019-06-26T20:05:47.446Z,5.47
2019-06-26T20:08:15.343Z,6.43
2019-06-26T20:10:43.057Z,5.27
2019-06-26T20:13:10.876Z,6.07
2019-06-26T20:15:41.149Z,6.00
2019-06-26T20:18:08.881Z,6.50
2019-06-26T20:20:36.678Z,5.80
2019-06-26T20:23:05.515Z,6.37
2019-06-26T20:25:33.645Z,5.33
2019-06-26T20:28:01.529Z,5.13
2019-06-26T20:30:34.331Z,5.57
2019-06-26T20:33:02.566Z,6.05
2019-06-26T20:35:32.000Z,5.30
2019-06-26T20:38:00.349Z,4.80
2019-06-26T20:40:28.795Z,4.87
2019-06-26T20:42:58.660Z,4.70
2019-06-26T20:45:28.713Z,4.50
2019-06-26T20:47:56.586Z,5.90
2019-06-26T20:50:27.330Z,4.00
2019-06-26T20:52:55.265Z,4.03
2019-06-26T20:55:23.292Z,3.70
2019-06-26T20:57:51.248Z,3.83
2019-06-26T21:00:22.369Z,3.73
2019-06-26T21:02:49.027Z,4.30
2019-06-26T21:05:16.896Z,4.30
2019-06-26T21:07:44.900Z,4.45
2019-06-26T21:10:13.024Z,5.50
2019-06-26T21:12:42.201Z,4.93
2019-06-26T21:15:10.313Z,5.20
2019-06-26T21:17:38.043Z,4.33
2019-06-26T21:20:06.372Z,4.07
2019-06-26T21:22:34.080Z,4.80
2019-06-26T21:25:17.028Z,4.27
2019-06-26T21:27:32.361Z,4.13
2019-06-26T21:30:00.184Z,3.80
2019-06-26T21:32:27.748Z,4.20
2019-06-26T21:34:55.454Z,4.60
2019-06-26T21:37:23.311Z,3.80
2019-06-26T21:39:51.119Z,4.07
2019-06-26T21:42:18.685Z,4.10
2019-06-26T21:44:46.483Z,3.90
2019-06-26T21:47:15.606Z,3.87
2019-06-26T21:49:43.110Z,3.67
2019-06-26T21:52:10.672Z,4.77
2019-06-26T21:54:38.148Z,3.97
2019-06-26T21:57:24.089Z,4.13
2019-06-26T22:00:11.298Z,4.37
2019-06-26T22:02:58.026Z,3.70
2019-06-26T22:05:27.838Z,4.03
2019-06-26T22:07:57.302Z,3.63
2019-06-26T22:10:32.239Z,3.93
2019-06-26T22:12:59.718Z,3.17
2019-06-26T22:15:27.540Z,3.83
2019-06-26T22:17:55.226Z,3.23
2019-06-26T22:20:22.921Z,3.70
2019-06-26T22:22:50.311Z,3.30
2019-06-26T22:25:17.968Z,3.50
2019-06-26T22:27:45.646Z,3.67
2019-06-26T22:30:14.965Z,3.77
2019-06-26T22:32:42.566Z,4.30
2019-06-26T22:35:13.967Z,4.33
2019-06-26T22:37:41.561Z,3.60
2019-06-26T22:40:09.083Z,3.97
2019-06-26T22:42:36.658Z,4.23
2019-06-26T22:45:04.495Z,4.50
2019-06-26T22:47:32.111Z,4.93
2019-06-26T22:49:59.699Z,3.53
2019-06-26T22:52:26.999Z,4.40
2019-06-26T22:54:54.509Z,4.00
2019-06-26T22:57:22.125Z,4.50
2019-06-26T22:59:49.671Z,4.27
2019-06-26T23:02:17.295Z,3.90
2019-06-26T23:04:45.698Z,5.00
2019-06-26T23:07:13.931Z,4.20
2019-06-26T23:09:41.279Z,4.77
2019-06-26T23:12:10.830Z,4.80
2019-06-26T23:14:38.294Z,4.50
2019-06-26T23:17:05.997Z,4.40
2019-06-26T23:19:33.724Z,4.60
2019-06-26T23:22:01.232Z,4.10
2019-06-26T23:24:28.762Z,4.40
2019-06-26T23:26:56.331Z,4.23
2019-06-26T23:29:24.038Z,4.53
2019-06-26T23:31:51.522Z,4.50
2019-06-26T23:34:19.160Z,4.10
2019-06-26T23:36:47.661Z,3.97
2019-06-26T23:39:35.194Z,5.40
2019-06-26T23:42:02.823Z,5.07
2019-06-26T23:44:30.386Z,4.77
2019-06-26T23:46:58.149Z,5.13
2019-06-26T23:49:26.203Z,5.77
2019-06-26T23:51:54.350Z,4.93
2019-06-26T23:54:22.026Z,5.67
2019-06-26T23:56:49.655Z,5.17
2019-06-26T23:59:17.460Z,5.13
